Time;durP1;ratioP1;P1;durP2;ratioP2;P2;SDS_P1;SDS_P2;PMS_P1;PMS_P2;Temp;Humidity;BMP_temperature;BMP_pressure;BME280_temperature;BME280_humidity;BME280_pressure;Samples;Min_cycle;Max_cycle;Signal;HPM_P1;HPM_P2
2022/03/07 00:02:02;;;;;;;22.92;10.70;;;;;;;;;;5097699;28;20591;-60
2022/03/07 00:04:28;;;;;;;22.98;10.50;;;;;;;;;;5097511;28;20583;-60
2022/03/07 00:06:54;;;;;;;17.70;10.02;;;;;;;;;;5097495;28;20177;-60
2022/03/07 00:09:20;;;;;;;21.63;10.50;;;;;;;;;;5097038;28;20191;-60
2022/03/07 00:11:46;;;;;;;23.55;10.82;;;;;;;;;;5097212;28;20505;-60
2022/03/07 00:14:12;;;;;;;19.48;10.93;;;;;;;;;;5097707;28;20575;-60
2022/03/07 00:16:38;;;;;;;17.73;10.73;;;;;;;;;;5096999;28;20167;-60
2022/03/07 00:19:04;;;;;;;23.15;10.93;;;;;;;;;;5097445;28;20164;-60
2022/03/07 00:21:30;;;;;;;18.58;10.50;;;;;;;;;;5097229;28;20255;-60
2022/03/07 00:23:57;;;;;;;25.55;11.70;;;;;;;;;;5096761;28;20596;-60
2022/03/07 00:26:23;;;;;;;25.40;11.80;;;;;;;;;;5097352;28;20195;-60
2022/03/07 00:28:48;;;;;;;22.63;10.60;;;;;;;;;;5097026;28;20218;-60
2022/03/07 00:31:15;;;;;;;18.52;9.43;;;;;;;;;;5097113;28;20643;-60
2022/03/07 00:33:43;;;;;;;20.17;12.10;;;;;;;;;;5097014;28;20209;-60
2022/03/07 00:36:09;;;;;;;20.35;11.07;;;;;;;;;;5097046;28;20164;-60
2022/03/07 00:38:35;;;;;;;22.23;11.40;;;;;;;;;;5096825;28;20175;-60
2022/03/07 00:41:02;;;;;;;21.33;10.57;;;;;;;;;;5096765;28;20167;-60
2022/03/07 00:43:28;;;;;;;24.75;11.75;;;;;;;;;;5096514;28;20177;-60
2022/03/07 00:45:54;;;;;;;19.70;10.60;;;;;;;;;;5096568;28;20167;-61
2022/03/07 00:48:20;;;;;;;19.50;10.10;;;;;;;;;;5096485;28;20270;-61
2022/03/07 00:50:46;;;;;;;20.45;9.07;;;;;;;;;;5096357;28;20189;-61
2022/03/07 00:53:13;;;;;;;18.08;10.75;;;;;;;;;;5096214;28;20477;-61
2022/03/07 00:55:40;;;;;;;15.35;8.80;;;;;;;;;;5096517;28;20168;-60
2022/03/07 00:58:06;;;;;;;19.25;9.43;;;;;;;;;;5096317;28;20183;-59
2022/03/07 01:00:32;;;;;;;20.52;9.20;;;;;;;;;;5096085;28;20183;-61
2022/03/07 01:02:58;;;;;;;14.35;8.27;;;;;;;;;;5096081;28;20163;-61
2022/03/07 01:05:24;;;;;;;21.90;10.13;;;;;;;;;;5095673;28;20174;-61
2022/03/07 01:07:50;;;;;;;19.08;10.00;;;;;;;;;;5095891;28;20183;-61
2022/03/07 01:10:16;;;;;;;14.75;8.93;;;;;;;;;;5096226;28;20172;-61
2022/03/07 01:12:42;;;;;;;20.10;9.80;;;;;;;;;;5095082;28;20191;-61
2022/03/07 01:15:09;;;;;;;22.63;9.90;;;;;;;;;;5094874;28;20185;-61
2022/03/07 01:17:35;;;;;;;17.00;7.97;;;;;;;;;;5095146;28;20264;-61
2022/03/07 01:20:02;;;;;;;15.50;7.93;;;;;;;;;;5095064;28;20312;-61
2022/03/07 01:22:27;;;;;;;15.05;8.20;;;;;;;;;;5094835;28;20256;-60
2022/03/07 01:24:53;;;;;;;13.82;8.20;;;;;;;;;;5095080;28;20591;-60
2022/03/07 01:27:19;;;;;;;18.10;9.55;;;;;;;;;;5094537;28;20191;-61
2022/03/07 01:29:45;;;;;;;18.77;9.13;;;;;;;;;;5093551;28;20598;-61
2022/03/07 01:32:11;;;;;;;16.20;8.60;;;;;;;;;;5094719;28;20284;-61
2022/03/07 01:34:37;;;;;;;17.30;8.88;;;;;;;;;;5094698;28;20503;-60
2022/03/07 01:37:03;;;;;;;15.02;8.55;;;;;;;;;;5095331;28;20164;-61
2022/03/07 01:39:29;;;;;;;17.23;8.15;;;;;;;;;;5095193;28;20621;-61
2022/03/07 01:41:55;;;;;;;18.30;7.60;;;;;;;;;;5094423;28;20172;-61
2022/03/07 01:44:24;;;;;;;16.20;8.25;;;;;;;;;;5094268;28;20603;-61
2022/03/07 01:46:50;;;;;;;14.05;7.25;;;;;;;;;;5094469;28;20626;-61
2022/03/07 01:49:16;;;;;;;16.17;8.07;;;;;;;;;;5094426;28;20235;-60
2022/03/07 01:51:42;;;;;;;15.13;7.68;;;;;;;;;;5094212;28;20569;-61
2022/03/07 01:54:12;;;;;;;16.95;7.47;;;;;;;;;;5094329;28;20175;-61
2022/03/07 01:56:38;;;;;;;12.40;7.35;;;;;;;;;;5094576;28;20254;-61
2022/03/07 01:59:05;;;;;;;14.23;7.60;;;;;;;;;;5093953;28;20171;-61
2022/03/07 02:01:32;;;;;;;15.82;7.07;;;;;;;;;;5093874;28;20210;-60
2022/03/07 02:03:58;;;;;;;15.13;7.15;;;;;;;;;;5094052;28;20186;-61
2022/03/07 02:06:25;;;;;;;13.35;6.82;;;;;;;;;;5094143;28;20163;-61
2022/03/07 02:08:52;;;;;;;12.25;6.10;;;;;;;;;;5093737;28;20197;-61
2022/03/07 02:11:18;;;;;;;14.48;7.05;;;;;;;;;;5094112;28;20168;-60
2022/03/07 02:13:44;;;;;;;12.48;6.30;;;;;;;;;;5093757;28;20498;-60
2022/03/07 02:16:12;;;;;;;12.05;6.43;;;;;;;;;;5093709;28;20250;-60
2022/03/07 02:18:38;;;;;;;13.45;6.65;;;;;;;;;;5093664;28;20187;-60
2022/03/07 02:21:07;;;;;;;15.30;7.50;;;;;;;;;;5094061;28;20167;-61
2022/03/07 02:23:33;;;;;;;16.50;7.25;;;;;;;;;;5092611;28;20674;-61
2022/03/07 02:25:59;;;;;;;14.77;6.63;;;;;;;;;;5093849;28;20591;-61
2022/03/07 02:28:25;;;;;;;13.65;7.25;;;;;;;;;;5093627;28;20215;-61
2022/03/07 02:30:54;;;;;;;15.10;7.32;;;;;;;;;;5093893;28;20171;-61
2022/03/07 02:33:20;;;;;;;14.80;7.32;;;;;;;;;;5093929;28;20167;-61
2022/03/07 02:35:46;;;;;;;15.52;7.25;;;;;;;;;;5093520;28;20185;-61
2022/03/07 02:38:13;;;;;;;15.70;7.82;;;;;;;;;;5093397;28;20224;-61
2022/03/07 02:40:40;;;;;;;14.77;7.30;;;;;;;;;;5093784;28;20176;-60
2022/03/07 02:43:06;;;;;;;15.77;7.78;;;;;;;;;;5093538;28;20225;-60
2022/03/07 02:45:31;;;;;;;12.02;6.18;;;;;;;;;;5093432;28;20171;-60
2022/03/07 02:47:57;;;;;;;15.23;6.82;;;;;;;;;;5093372;28;20521;-60
2022/03/07 02:50:23;;;;;;;12.93;6.50;;;;;;;;;;5093246;28;20183;-61
2022/03/07 02:52:49;;;;;;;12.02;6.65;;;;;;;;;;5093400;28;20168;-61
2022/03/07 02:55:15;;;;;;;13.57;6.70;;;;;;;;;;5093368;28;20178;-61
2022/03/07 02:57:41;;;;;;;15.50;6.75;;;;;;;;;;5093684;28;20587;-59
2022/03/07 03:00:07;;;;;;;14.50;7.55;;;;;;;;;;5093401;28;20595;-60
2022/03/07 03:02:33;;;;;;;12.68;6.43;;;;;;;;;;5093327;28;20164;-60
2022/03/07 03:04:59;;;;;;;13.75;6.72;;;;;;;;;;5093848;28;20648;-60
2022/03/07 03:07:25;;;;;;;15.13;7.15;;;;;;;;;;5093269;28;20160;-60
2022/03/07 03:09:51;;;;;;;17.05;7.13;;;;;;;;;;5093548;28;20195;-60
2022/03/07 03:12:18;;;;;;;13.88;6.80;;;;;;;;;;5093213;28;20174;-60
2022/03/07 03:14:46;;;;;;;14.90;7.40;;;;;;;;;;5094315;28;20246;-59
2022/03/07 03:17:12;;;;;;;13.68;6.38;;;;;;;;;;5097311;28;20167;-59
2022/03/07 03:19:38;;;;;;;15.40;7.28;;;;;;;;;;5097043;28;20685;-57
2022/03/07 03:22:04;;;;;;;11.18;6.13;;;;;;;;;;5097575;28;20163;-60
2022/03/07 03:24:30;;;;;;;13.52;6.63;;;;;;;;;;5098634;28;20345;-60
2022/03/07 03:26:56;;;;;;;14.75;7.10;;;;;;;;;;5099139;28;20195;-60
2022/03/07 03:29:22;;;;;;;13.23;7.18;;;;;;;;;;5099060;28;20215;-60
2022/03/07 03:31:48;;;;;;;13.18;7.10;;;;;;;;;;5100993;28;20607;-60
2022/03/07 03:34:14;;;;;;;15.27;7.20;;;;;;;;;;5103793;28;20229;-60
2022/03/07 03:36:40;;;;;;;14.70;6.95;;;;;;;;;;5104513;28;20533;-60
2022/03/07 03:39:06;;;;;;;14.38;6.40;;;;;;;;;;5104575;28;20223;-60
2022/03/07 03:41:32;;;;;;;13.57;6.75;;;;;;;;;;5104986;28;20266;-60
2022/03/07 03:43:58;;;;;;;11.75;6.20;;;;;;;;;;5108936;28;20164;-61
2022/03/07 03:46:24;;;;;;;15.95;6.28;;;;;;;;;;5108308;28;20502;-60
2022/03/07 03:48:50;;;;;;;13.02;6.57;;;;;;;;;;5108814;28;20244;-60
2022/03/07 03:51:16;;;;;;;13.32;6.80;;;;;;;;;;5107269;28;20533;-60
2022/03/07 03:53:42;;;;;;;16.48;6.30;;;;;;;;;;5103060;28;20175;-61
2022/03/07 03:56:08;;;;;;;16.88;6.22;;;;;;;;;;5096431;28;20171;-60
2022/03/07 03:58:34;;;;;;;12.52;6.68;;;;;;;;;;5096306;28;20167;-60
2022/03/07 04:01:00;;;;;;;12.02;5.78;;;;;;;;;;5096151;28;20235;-60
2022/03/07 04:03:27;;;;;;;16.20;7.03;;;;;;;;;;5096499;28;20295;-61
2022/03/07 04:05:53;;;;;;;10.98;5.97;;;;;;;;;;5096126;28;20183;-60
2022/03/07 04:08:19;;;;;;;12.23;5.80;;;;;;;;;;5096407;28;20637;-60
2022/03/07 04:10:46;;;;;;;16.20;6.25;;;;;;;;;;5096274;28;20301;-59
2022/03/07 04:13:12;;;;;;;13.88;5.70;;;;;;;;;;5096609;28;20602;-60
2022/03/07 04:15:38;;;;;;;11.82;6.25;;;;;;;;;;5096274;28;20159;-59
2022/03/07 04:18:06;;;;;;;13.40;6.53;;;;;;;;;;5096596;28;20502;-59
2022/03/07 04:20:32;;;;;;;10.98;6.30;;;;;;;;;;5096195;28;20163;-59
2022/03/07 04:22:58;;;;;;;11.75;6.03;;;;;;;;;;5096156;28;20216;-61
2022/03/07 04:25:24;;;;;;;10.57;5.43;;;;;;;;;;5095821;28;20171;-61
2022/03/07 04:27:50;;;;;;;14.27;6.25;;;;;;;;;;5094814;28;20183;-61
2022/03/07 04:30:16;;;;;;;13.27;6.28;;;;;;;;;;5096101;28;20168;-60
2022/03/07 04:32:42;;;;;;;14.95;6.20;;;;;;;;;;5094923;28;20583;-60
2022/03/07 04:35:09;;;;;;;10.38;5.65;;;;;;;;;;5095915;28;20220;-61
2022/03/07 04:37:38;;;;;;;10.82;6.07;;;;;;;;;;5095670;28;20533;-61
2022/03/07 04:40:04;;;;;;;13.23;6.20;;;;;;;;;;5095671;28;20465;-61
2022/03/07 04:42:30;;;;;;;10.35;5.68;;;;;;;;;;5095841;28;20175;-61
2022/03/07 04:44:56;;;;;;;16.55;6.07;;;;;;;;;;5095603;28;20189;-61
2022/03/07 04:47:22;;;;;;;14.68;5.53;;;;;;;;;;5095381;28;20662;-61
2022/03/07 04:49:48;;;;;;;10.98;5.78;;;;;;;;;;5095574;28;20171;-61
2022/03/07 04:52:14;;;;;;;12.90;6.18;;;;;;;;;;5095595;28;20156;-61
2022/03/07 04:54:39;;;;;;;9.73;5.50;;;;;;;;;;5095345;28;20493;-61
2022/03/07 04:57:05;;;;;;;9.77;5.50;;;;;;;;;;5095323;28;20186;-61
2022/03/07 04:59:31;;;;;;;11.25;6.00;;;;;;;;;;5095193;28;20178;-61
2022/03/07 05:01:57;;;;;;;13.43;6.07;;;;;;;;;;5095132;28;20148;-61
2022/03/07 05:04:23;;;;;;;12.43;5.47;;;;;;;;;;5095079;28;20171;-61
2022/03/07 05:06:49;;;;;;;10.07;5.45;;;;;;;;;;5093981;28;20228;-59
2022/03/07 05:09:15;;;;;;;12.35;5.43;;;;;;;;;;5095245;28;20491;-61
2022/03/07 05:11:41;;;;;;;11.85;5.63;;;;;;;;;;5094879;28;20194;-60
2022/03/07 05:14:07;;;;;;;8.25;5.32;;;;;;;;;;5094951;28;20164;-59
2022/03/07 05:16:33;;;;;;;13.05;5.72;;;;;;;;;;5094885;28;20156;-59
2022/03/07 05:18:59;;;;;;;11.55;5.10;;;;;;;;;;5094914;28;20211;-61
2022/03/07 05:21:25;;;;;;;12.07;6.03;;;;;;;;;;5094691;28;20159;-61
2022/03/07 05:23:51;;;;;;;12.65;5.72;;;;;;;;;;5094754;28;20203;-61
2022/03/07 05:26:17;;;;;;;12.80;5.47;;;;;;;;;;5094666;28;20164;-61
2022/03/07 05:28:42;;;;;;;12.27;5.97;;;;;;;;;;5094735;28;20228;-61
2022/03/07 05:31:12;;;;;;;11.82;5.57;;;;;;;;;;5094504;28;20243;-60
2022/03/07 05:33:38;;;;;;;13.00;5.57;;;;;;;;;;5094759;28;20624;-60
2022/03/07 05:36:05;;;;;;;11.57;6.03;;;;;;;;;;5094725;28;20168;-61
2022/03/07 05:38:31;;;;;;;17.25;6.43;;;;;;;;;;5094121;28;20626;-60
2022/03/07 05:40:57;;;;;;;10.73;5.88;;;;;;;;;;5094264;28;20163;-59
2022/03/07 05:43:23;;;;;;;15.07;6.20;;;;;;;;;;5094353;28;20175;-60
2022/03/07 05:45:49;;;;;;;10.63;5.90;;;;;;;;;;5094215;28;20167;-60
2022/03/07 05:48:15;;;;;;;15.98;6.00;;;;;;;;;;5094495;28;20184;-60
2022/03/07 05:50:41;;;;;;;12.07;5.47;;;;;;;;;;5094252;28;20507;-60
2022/03/07 05:53:07;;;;;;;13.55;5.82;;;;;;;;;;5094404;28;20156;-59
2022/03/07 05:55:33;;;;;;;13.20;5.55;;;;;;;;;;5094119;28;20407;-59
2022/03/07 05:58:00;;;;;;;10.13;5.55;;;;;;;;;;5094435;28;20167;-61
2022/03/07 06:00:26;;;;;;;14.32;5.40;;;;;;;;;;5093979;28;20175;-60
2022/03/07 06:02:52;;;;;;;11.63;5.82;;;;;;;;;;5094056;28;20167;-60
2022/03/07 06:05:18;;;;;;;11.00;5.25;;;;;;;;;;5094211;28;20238;-60
2022/03/07 06:07:44;;;;;;;9.93;5.68;;;;;;;;;;5093911;28;20245;-60
2022/03/07 06:10:10;;;;;;;12.80;5.88;;;;;;;;;;5094361;28;20320;-60
2022/03/07 06:12:36;;;;;;;15.35;5.65;;;;;;;;;;5094301;28;20171;-59
2022/03/07 06:15:04;;;;;;;10.50;5.72;;;;;;;;;;5094156;28;20185;-60
2022/03/07 06:17:31;;;;;;;8.95;5.03;;;;;;;;;;5093826;28;20246;-60
2022/03/07 06:19:57;;;;;;;8.45;5.18;;;;;;;;;;5094134;28;20159;-56
2022/03/07 06:22:23;;;;;;;10.55;5.20;;;;;;;;;;5094046;28;20168;-60
2022/03/07 06:24:49;;;;;;;14.77;5.80;;;;;;;;;;5094351;28;20525;-59
2022/03/07 06:27:15;;;;;;;13.98;4.85;;;;;;;;;;5094711;28;20159;-60
2022/03/07 06:29:41;;;;;;;10.85;5.32;;;;;;;;;;5093697;28;20199;-59
2022/03/07 06:32:07;;;;;;;12.63;5.20;;;;;;;;;;5093710;28;20606;-61
2022/03/07 06:34:33;;;;;;;10.00;6.05;;;;;;;;;;5093573;28;20243;-59
2022/03/07 06:37:00;;;;;;;8.45;5.03;;;;;;;;;;5093510;28;20232;-59
2022/03/07 06:39:27;;;;;;;9.45;5.47;;;;;;;;;;5093467;28;20250;-59
2022/03/07 06:41:53;;;;;;;9.85;5.22;;;;;;;;;;5093696;28;20186;-60
2022/03/07 06:44:19;;;;;;;12.43;5.40;;;;;;;;;;5093630;28;20164;-60
2022/03/07 06:46:45;;;;;;;10.10;5.70;;;;;;;;;;5093675;28;20172;-59
2022/03/07 06:49:11;;;;;;;12.23;5.53;;;;;;;;;;5093779;28;20511;-59
2022/03/07 06:51:37;;;;;;;10.90;5.97;;;;;;;;;;5099304;28;20324;-58
2022/03/07 06:54:03;;;;;;;14.45;5.75;;;;;;;;;;5100998;28;20171;-59
2022/03/07 06:56:29;;;;;;;13.27;6.53;;;;;;;;;;5100874;28;20175;-59
2022/03/07 06:58:55;;;;;;;9.45;5.53;;;;;;;;;;5101546;28;20167;-61
2022/03/07 07:01:21;;;;;;;12.40;5.97;;;;;;;;;;5102094;28;20195;-61
2022/03/07 07:03:47;;;;;;;11.00;5.72;;;;;;;;;;5099665;28;20171;-61
2022/03/07 07:06:13;;;;;;;12.90;5.57;;;;;;;;;;5097716;28;20164;-61
2022/03/07 07:08:39;;;;;;;12.82;6.18;;;;;;;;;;5097286;28;20191;-60
2022/03/07 07:11:05;;;;;;;10.15;6.45;;;;;;;;;;5097375;28;20623;-60
2022/03/07 07:13:31;;;;;;;12.10;5.70;;;;;;;;;;5096190;28;20168;-60
2022/03/07 07:15:57;;;;;;;16.25;6.65;;;;;;;;;;5097456;28;20164;-60
2022/03/07 07:18:24;;;;;;;13.98;5.40;;;;;;;;;;5097293;28;20175;-60
2022/03/07 07:20:50;;;;;;;14.23;5.80;;;;;;;;;;5097478;28;20175;-60
2022/03/07 07:23:17;;;;;;;11.32;5.72;;;;;;;;;;5097000;28;20332;-60
2022/03/07 07:25:43;;;;;;;11.93;5.70;;;;;;;;;;5096894;28;20672;-60
2022/03/07 07:28:08;;;;;;;7.50;5.20;;;;;;;;;;5097059;28;20215;-61
2022/03/07 07:30:34;;;;;;;10.10;5.53;;;;;;;;;;5095834;28;20227;-60
2022/03/07 07:33:00;;;;;;;9.32;4.80;;;;;;;;;;5096897;28;20627;-60
2022/03/07 07:35:26;;;;;;;11.60;4.95;;;;;;;;;;5096949;28;20155;-61
2022/03/07 07:37:54;;;;;;;11.45;4.78;;;;;;;;;;5097220;28;20660;-60
2022/03/07 07:40:20;;;;;;;8.48;5.00;;;;;;;;;;5097911;28;20213;-59
2022/03/07 07:42:46;;;;;;;7.88;4.22;;;;;;;;;;5097177;28;20524;-60
2022/03/07 07:45:12;;;;;;;11.27;4.82;;;;;;;;;;5099497;28;20168;-60
2022/03/07 07:47:38;;;;;;;8.45;4.68;;;;;;;;;;5098957;28;20561;-60
2022/03/07 07:50:04;;;;;;;9.20;4.78;;;;;;;;;;5096819;28;20183;-61
2022/03/07 07:52:30;;;;;;;8.15;4.32;;;;;;;;;;5096506;28;20174;-61
2022/03/07 07:54:56;;;;;;;9.52;3.85;;;;;;;;;;5096615;28;20159;-60
2022/03/07 07:57:22;;;;;;;6.93;3.97;;;;;;;;;;5096541;28;20456;-60
2022/03/07 07:59:48;;;;;;;10.32;4.43;;;;;;;;;;5096705;28;20340;-61
2022/03/07 08:02:14;;;;;;;6.70;4.10;;;;;;;;;;5096156;28;20246;-60
2022/03/07 08:04:40;;;;;;;7.93;4.18;;;;;;;;;;5096502;28;20171;-60
2022/03/07 08:07:06;;;;;;;10.82;3.72;;;;;;;;;;5096209;28;20170;-60
2022/03/07 08:09:32;;;;;;;6.47;3.97;;;;;;;;;;5096174;28;20227;-60
2022/03/07 08:11:57;;;;;;;8.80;3.40;;;;;;;;;;5096088;28;20199;-60
2022/03/07 08:14:23;;;;;;;7.57;3.75;;;;;;;;;;5096160;28;20193;-60
2022/03/07 08:16:49;;;;;;;8.75;3.47;;;;;;;;;;5096067;28;20164;-60
2022/03/07 08:19:15;;;;;;;5.85;3.75;;;;;;;;;;5095864;28;20625;-60
2022/03/07 08:21:41;;;;;;;6.25;3.63;;;;;;;;;;5095969;28;20197;-60
2022/03/07 08:24:07;;;;;;;4.22;3.20;;;;;;;;;;5096004;28;20172;-61
2022/03/07 08:26:33;;;;;;;5.93;3.33;;;;;;;;;;5096170;28;20176;-60
2022/03/07 08:28:59;;;;;;;5.93;3.70;;;;;;;;;;5095830;28;20237;-61
2022/03/07 08:31:25;;;;;;;5.15;3.35;;;;;;;;;;5095787;28;20614;-60
2022/03/07 08:33:51;;;;;;;5.53;3.60;;;;;;;;;;5095802;28;20202;-60
2022/03/07 08:36:17;;;;;;;9.45;3.70;;;;;;;;;;5095717;28;20164;-60
2022/03/07 08:38:43;;;;;;;7.07;3.45;;;;;;;;;;5095691;28;20178;-61
2022/03/07 08:41:09;;;;;;;6.80;3.55;;;;;;;;;;5095647;28;20591;-60
2022/03/07 08:43:35;;;;;;;8.20;3.97;;;;;;;;;;5095716;28;20179;-60
2022/03/07 08:46:01;;;;;;;7.70;3.20;;;;;;;;;;5095999;28;20182;-60
2022/03/07 08:48:28;;;;;;;6.68;2.88;;;;;;;;;;5096274;28;20619;-60
2022/03/07 08:50:54;;;;;;;7.18;3.58;;;;;;;;;;5096819;28;20242;-61
2022/03/07 08:53:20;;;;;;;5.72;2.70;;;;;;;;;;5096290;28;20163;-60
2022/03/07 08:55:46;;;;;;;6.25;3.20;;;;;;;;;;5096482;28;20217;-60
2022/03/07 08:58:12;;;;;;;4.63;2.35;;;;;;;;;;5096174;28;20164;-60
2022/03/07 09:00:39;;;;;;;5.50;2.88;;;;;;;;;;5095539;28;20213;-60
2022/03/07 09:03:05;;;;;;;5.03;2.70;;;;;;;;;;5095617;28;20170;-59
2022/03/07 09:05:31;;;;;;;6.22;2.80;;;;;;;;;;5095593;28;20163;-60
2022/03/07 09:07:58;;;;;;;3.40;2.40;;;;;;;;;;5095063;28;20312;-59
2022/03/07 09:10:24;;;;;;;4.85;2.38;;;;;;;;;;5095664;28;20255;-59
2022/03/07 09:12:49;;;;;;;3.50;2.25;;;;;;;;;;5094782;28;20191;-60
2022/03/07 09:15:15;;;;;;;6.00;2.30;;;;;;;;;;5095093;28;20160;-61
2022/03/07 09:17:42;;;;;;;4.78;2.58;;;;;;;;;;5094930;28;20171;-60
2022/03/07 09:20:08;;;;;;;2.78;1.52;;;;;;;;;;5095007;28;20175;-61
2022/03/07 09:22:35;;;;;;;2.60;1.45;;;;;;;;;;5094923;28;20167;-60
2022/03/07 09:25:02;;;;;;;3.90;1.40;;;;;;;;;;5094636;28;20172;-60
2022/03/07 09:27:27;;;;;;;2.63;1.30;;;;;;;;;;5094729;28;20167;-60
2022/03/07 09:29:53;;;;;;;3.80;1.20;;;;;;;;;;5094870;28;20167;-60
2022/03/07 09:32:19;;;;;;;5.70;2.08;;;;;;;;;;5094609;28;20172;-60
2022/03/07 09:34:45;;;;;;;4.95;1.30;;;;;;;;;;5094673;28;20160;-60
2022/03/07 09:37:11;;;;;;;1.98;1.02;;;;;;;;;;5095076;28;20595;-60
2022/03/07 09:39:37;;;;;;;3.10;1.08;;;;;;;;;;5094723;28;20217;-59
2022/03/07 09:42:04;;;;;;;1.67;1.20;;;;;;;;;;5094611;28;20178;-60
2022/03/07 09:44:30;;;;;;;3.95;1.35;;;;;;;;;;5096059;28;20183;-60
2022/03/07 09:47:00;;;;;;;2.83;1.30;;;;;;;;;;5094507;28;20849;-60
2022/03/07 09:49:26;;;;;;;2.50;1.10;;;;;;;;;;5094469;28;20172;-60
2022/03/07 09:51:55;;;;;;;2.08;0.85;;;;;;;;;;5094259;28;20251;-59
2022/03/07 09:54:23;;;;;;;4.13;1.00;;;;;;;;;;5094668;28;20163;-60
2022/03/07 09:56:49;;;;;;;1.70;1.13;;;;;;;;;;5094459;28;20186;-59
2022/03/07 09:59:16;;;;;;;1.42;0.90;;;;;;;;;;5094203;28;20588;-61
2022/03/07 10:01:42;;;;;;;2.20;0.80;;;;;;;;;;5094102;28;20674;-61
2022/03/07 10:04:10;;;;;;;1.48;0.88;;;;;;;;;;5094223;28;20163;-61
2022/03/07 10:06:36;;;;;;;1.85;1.30;;;;;;;;;;5094341;28;20167;-60
2022/03/07 10:09:02;;;;;;;3.72;0.90;;;;;;;;;;5094195;28;20191;-60
2022/03/07 10:11:29;;;;;;;1.77;0.80;;;;;;;;;;5094149;28;20220;-60
2022/03/07 10:13:59;;;;;;;1.38;0.60;;;;;;;;;;5093907;28;20160;-60
2022/03/07 10:16:35;;;;;;;1.98;0.70;;;;;;;;;;5093760;28;20205;-59
2022/03/07 10:19:01;;;;;;;2.13;0.68;;;;;;;;;;5093737;28;20160;-60
2022/03/07 10:21:28;;;;;;;2.55;0.75;;;;;;;;;;5093779;28;20167;-60
2022/03/07 10:23:54;;;;;;;2.33;0.80;;;;;;;;;;5093858;28;20164;-60
2022/03/07 10:26:20;;;;;;;1.48;0.80;;;;;;;;;;5093878;28;20431;-60
2022/03/07 10:28:57;;;;;;;2.53;0.70;;;;;;;;;;5093778;28;20199;-60
2022/03/07 10:31:23;;;;;;;4.78;0.80;;;;;;;;;;5093910;28;20224;-60
2022/03/07 10:34:04;;;;;;;1.25;0.73;;;;;;;;;;5093498;28;20225;-59
2022/03/07 10:36:30;;;;;;;3.75;0.70;;;;;;;;;;5093673;28;20163;-60
2022/03/07 10:38:56;;;;;;;2.08;0.68;;;;;;;;;;5093730;28;20174;-60
2022/03/07 10:41:32;;;;;;;1.30;0.63;;;;;;;;;;5094221;28;20164;-60
2022/03/07 10:43:57;;;;;;;4.10;0.90;;;;;;;;;;5093921;28;20237;-60
2022/03/07 10:46:25;;;;;;;7.10;0.90;;;;;;;;;;5093753;28;20185;-60
2022/03/07 10:48:51;;;;;;;4.40;0.80;;;;;;;;;;5093847;28;20195;-60
2022/03/07 10:51:17;;;;;;;1.58;0.60;;;;;;;;;;5093946;28;20160;-60
2022/03/07 10:53:43;;;;;;;1.13;0.65;;;;;;;;;;5093943;28;20213;-60
2022/03/07 10:56:11;;;;;;;1.33;0.73;;;;;;;;;;5093758;28;20187;-61
2022/03/07 10:58:45;;;;;;;2.70;0.63;;;;;;;;;;5093508;28;20180;-61
2022/03/07 11:01:10;;;;;;;1.55;0.55;;;;;;;;;;5093497;28;20179;-60
2022/03/07 11:03:38;;;;;;;4.90;0.80;;;;;;;;;;5094279;28;20233;-60
2022/03/07 11:06:04;;;;;;;2.97;0.50;;;;;;;;;;5093854;28;20171;-60
2022/03/07 11:08:30;;;;;;;1.23;0.80;;;;;;;;;;5093592;28;20243;-61
2022/03/07 11:10:57;;;;;;;0.77;0.60;;;;;;;;;;5093935;28;20178;-61
2022/03/07 11:13:30;;;;;;;3.38;0.95;;;;;;;;;;5094904;28;20300;-60
2022/03/07 11:15:58;;;;;;;0.60;0.40;;;;;;;;;;5093791;28;20159;-60
2022/03/07 11:18:24;;;;;;;1.63;0.50;;;;;;;;;;5093199;28;20164;-60
2022/03/07 11:20:50;;;;;;;0.93;0.60;;;;;;;;;;5093461;28;20167;-60
2022/03/07 11:23:23;;;;;;;1.95;0.63;;;;;;;;;;5092349;28;20478;-61
2022/03/07 11:25:50;;;;;;;1.35;0.47;;;;;;;;;;5093843;28;20191;-60
2022/03/07 11:28:16;;;;;;;1.23;0.60;;;;;;;;;;5093842;28;20272;-58
2022/03/07 11:30:43;;;;;;;1.30;0.70;;;;;;;;;;5093207;28;20164;-60
2022/03/07 11:33:16;;;;;;;1.73;0.75;;;;;;;;;;5092912;28;20191;-60
2022/03/07 11:35:46;;;;;;;2.25;0.60;;;;;;;;;;5093807;28;20163;-60
2022/03/07 11:38:14;;;;;;;1.90;0.50;;;;;;;;;;5096966;28;20595;-60
2022/03/07 11:41:00;;;;;;;2.67;0.60;;;;;;;;;;5097008;28;20172;-59
2022/03/07 11:43:26;;;;;;;1.42;0.57;;;;;;;;;;5097009;28;20234;-60
2022/03/07 11:45:53;;;;;;;2.30;0.63;;;;;;;;;;5096821;28;20160;-60
2022/03/07 11:48:19;;;;;;;1.02;0.50;;;;;;;;;;5096649;28;20194;-59
2022/03/07 11:50:45;;;;;;;1.48;0.75;;;;;;;;;;5096596;28;20678;-60
2022/03/07 11:53:14;;;;;;;2.72;0.52;;;;;;;;;;5096703;28;20238;-60
2022/03/07 11:55:48;;;;;;;1.13;0.50;;;;;;;;;;5096776;28;20163;-60
2022/03/07 11:58:14;;;;;;;3.25;0.60;;;;;;;;;;5097086;28;20630;-60
2022/03/07 12:00:40;;;;;;;1.08;0.50;;;;;;;;;;5096768;28;20187;-61
2022/03/07 12:03:11;;;;;;;2.85;0.68;;;;;;;;;;5096771;28;20175;-60
2022/03/07 12:05:36;;;;;;;1.00;0.65;;;;;;;;;;5096586;28;20172;-60
2022/03/07 12:08:10;;;;;;;2.88;1.42;;;;;;;;;;5096458;28;20614;-60
2022/03/07 12:10:38;;;;;;;2.08;0.77;;;;;;;;;;5096280;28;20166;-60
2022/03/07 12:13:10;;;;;;;2.42;0.70;;;;;;;;;;5096692;28;20199;-60
2022/03/07 12:15:43;;;;;;;1.98;0.68;;;;;;;;;;5096425;28;20159;-60
2022/03/07 12:18:09;;;;;;;1.73;0.68;;;;;;;;;;5096125;28;20599;-60
2022/03/07 12:20:45;;;;;;;1.27;0.60;;;;;;;;;;5095995;28;20193;-60
2022/03/07 12:23:11;;;;;;;0.85;0.70;;;;;;;;;;5095940;28;20280;-61
2022/03/07 12:25:37;;;;;;;1.67;1.10;;;;;;;;;;5095707;28;20168;-60
2022/03/07 12:28:03;;;;;;;1.83;0.90;;;;;;;;;;5095837;28;20194;-60
2022/03/07 12:30:29;;;;;;;0.90;0.60;;;;;;;;;;5095861;28;20258;-60
2022/03/07 12:32:55;;;;;;;2.20;0.85;;;;;;;;;;5096212;28;20163;-60
2022/03/07 12:35:21;;;;;;;2.67;0.80;;;;;;;;;;5094731;28;20179;-61
2022/03/07 12:37:47;;;;;;;1.80;0.80;;;;;;;;;;5095797;28;20544;-60
2022/03/07 12:40:13;;;;;;;1.95;0.93;;;;;;;;;;5095672;28;20487;-61
2022/03/07 12:42:42;;;;;;;1.33;0.80;;;;;;;;;;5095620;28;20616;-61
2022/03/07 12:45:09;;;;;;;2.83;0.70;;;;;;;;;;5096010;28;20199;-61
2022/03/07 12:47:38;;;;;;;1.25;0.80;;;;;;;;;;5094673;28;20250;-61
2022/03/07 12:50:09;;;;;;;2.67;0.93;;;;;;;;;;5095512;28;20171;-61
2022/03/07 12:52:36;;;;;;;2.85;0.98;;;;;;;;;;5095393;28;20591;-60
2022/03/07 12:55:06;;;;;;;1.30;0.85;;;;;;;;;;5095582;28;20484;-60
2022/03/07 12:57:32;;;;;;;1.25;0.60;;;;;;;;;;5095463;28;20583;-59
2022/03/07 13:00:00;;;;;;;0.98;0.80;;;;;;;;;;5095622;28;20175;-60
2022/03/07 13:02:33;;;;;;;1.92;0.90;;;;;;;;;;5095188;28;20166;-60
2022/03/07 13:04:59;;;;;;;1.38;1.10;;;;;;;;;;5095463;28;20503;-59
2022/03/07 13:07:25;;;;;;;2.00;1.40;;;;;;;;;;5095040;28;20187;-60
2022/03/07 13:09:52;;;;;;;1.73;1.20;;;;;;;;;;5094890;28;20631;-60
2022/03/07 13:12:18;;;;;;;2.55;1.10;;;;;;;;;;5095217;28;20270;-59
2022/03/07 13:14:45;;;;;;;2.97;1.40;;;;;;;;;;5095151;28;20191;-59
2022/03/07 13:17:12;;;;;;;2.53;1.52;;;;;;;;;;5094858;28;20167;-60
2022/03/07 13:19:41;;;;;;;2.83;1.58;;;;;;;;;;5095081;28;20241;-59
2022/03/07 13:22:08;;;;;;;3.63;1.40;;;;;;;;;;5094751;28;20224;-61
2022/03/07 13:24:34;;;;;;;1.88;1.10;;;;;;;;;;5094784;28;20251;-58
2022/03/07 13:27:04;;;;;;;1.65;1.15;;;;;;;;;;5094910;28;20520;-60
2022/03/07 13:29:31;;;;;;;2.85;1.05;;;;;;;;;;5094620;28;20249;-61
2022/03/07 13:31:59;;;;;;;5.75;1.50;;;;;;;;;;5094684;28;20164;-62
2022/03/07 13:34:25;;;;;;;3.50;1.42;;;;;;;;;;5094600;28;20159;-62
2022/03/07 13:36:54;;;;;;;1.85;1.20;;;;;;;;;;5094480;28;20508;-61
2022/03/07 13:39:25;;;;;;;2.63;1.20;;;;;;;;;;5094751;28;20175;-61
2022/03/07 13:41:52;;;;;;;2.03;1.00;;;;;;;;;;5094560;28;20251;-61
2022/03/07 13:44:19;;;;;;;2.22;1.20;;;;;;;;;;5094854;28;20182;-60
2022/03/07 13:46:52;;;;;;;1.23;1.08;;;;;;;;;;5094764;28;20477;-61
2022/03/07 13:49:18;;;;;;;1.73;1.38;;;;;;;;;;5095180;28;20618;-61
2022/03/07 13:51:44;;;;;;;1.95;1.10;;;;;;;;;;5094738;28;20172;-61
2022/03/07 13:54:10;;;;;;;2.63;0.90;;;;;;;;;;5096937;28;20224;-61
2022/03/07 13:56:36;;;;;;;1.40;1.00;;;;;;;;;;5094471;28;20163;-61
2022/03/07 13:59:11;;;;;;;1.95;0.90;;;;;;;;;;5094386;28;20168;-61
2022/03/07 14:01:37;;;;;;;1.13;0.82;;;;;;;;;;5094307;28;20343;-59
2022/03/07 14:04:16;;;;;;;1.75;1.20;;;;;;;;;;5094956;28;20622;-60
2022/03/07 14:06:44;;;;;;;2.67;1.00;;;;;;;;;;5095172;28;20185;-60
2022/03/07 14:09:13;;;;;;;1.35;0.98;;;;;;;;;;5095503;28;20195;-60
2022/03/07 14:11:39;;;;;;;1.63;0.75;;;;;;;;;;5095008;28;20564;-60
2022/03/07 14:14:16;;;;;;;2.38;1.10;;;;;;;;;;5095443;28;20164;-60
2022/03/07 14:16:42;;;;;;;1.63;1.30;;;;;;;;;;5094378;28;20221;-60
2022/03/07 14:19:08;;;;;;;4.80;1.23;;;;;;;;;;5094347;28;20175;-61
2022/03/07 14:21:35;;;;;;;1.17;1.00;;;;;;;;;;5094137;28;20216;-61
2022/03/07 14:24:02;;;;;;;2.25;1.30;;;;;;;;;;5094674;28;20483;-60
2022/03/07 14:26:28;;;;;;;2.10;1.20;;;;;;;;;;5093834;28;20172;-59
2022/03/07 14:28:56;;;;;;;3.97;1.50;;;;;;;;;;5093559;28;20241;-60
2022/03/07 14:31:22;;;;;;;1.63;1.20;;;;;;;;;;5093983;28;20163;-62
2022/03/07 14:33:48;;;;;;;3.60;1.30;;;;;;;;;;5094768;28;20171;-62